sensor_id;sensor_type;location;lat;lon;timestamp;P1;durP1;ratioP1;P2;durP2;ratioP2
20523;SDS011;10420;48.542;12.270;2023-04-03T00:03:06;9.87;;;5.37;;
20523;SDS011;10420;48.542;12.270;2023-04-03T00:08:07;10.57;;;5.67;;
20523;SDS011;10420;48.542;12.270;2023-04-03T00:13:09;7.93;;;5.53;;
20523;SDS011;10420;48.542;12.270;2023-04-03T00:18:10;9.50;;;5.57;;
20523;SDS011;10420;48.542;12.270;2023-04-03T00:23:11;7.87;;;5.13;;
20523;SDS011;10420;48.542;12.270;2023-04-03T00:28:11;7.20;;;5.00;;
20523;SDS011;10420;48.542;12.270;2023-04-03T00:33:12;9.07;;;5.57;;
20523;SDS011;10420;48.542;12.270;2023-04-03T00:38:14;15.60;;;9.10;;
20523;SDS011;10420;48.542;12.270;2023-04-03T00:43:19;13.93;;;7.33;;
20523;SDS011;10420;48.542;12.270;2023-04-03T00:48:29;9.30;;;5.73;;
20523;SDS011;10420;48.542;12.270;2023-04-03T00:53:33;9.67;;;5.10;;
20523;SDS011;10420;48.542;12.270;2023-04-03T00:58:40;7.70;;;4.87;;
20523;SDS011;10420;48.542;12.270;2023-04-03T01:03:47;8.60;;;4.83;;
20523;SDS011;10420;48.542;12.270;2023-04-03T01:08:48;7.37;;;4.93;;
20523;SDS011;10420;48.542;12.270;2023-04-03T01:13:50;6.57;;;4.40;;
20523;SDS011;10420;48.542;12.270;2023-04-03T01:18:51;6.83;;;4.63;;
20523;SDS011;10420;48.542;12.270;2023-04-03T01:29:04;12.07;;;4.23;;
20523;SDS011;10420;48.542;12.270;2023-04-03T01:34:05;6.57;;;4.10;;
20523;SDS011;10420;48.542;12.270;2023-04-03T01:39:06;9.20;;;4.60;;
20523;SDS011;10420;48.542;12.270;2023-04-03T01:44:07;6.87;;;4.20;;
20523;SDS011;10420;48.542;12.270;2023-04-03T01:49:07;5.50;;;4.20;;
20523;SDS011;10420;48.542;12.270;2023-04-03T01:54:08;7.07;;;4.60;;
20523;SDS011;10420;48.542;12.270;2023-04-03T01:59:09;6.60;;;3.93;;
20523;SDS011;10420;48.542;12.270;2023-04-03T02:04:09;7.93;;;4.37;;
20523;SDS011;10420;48.542;12.270;2023-04-03T02:09:11;6.97;;;4.23;;
20523;SDS011;10420;48.542;12.270;2023-04-03T02:14:12;6.97;;;3.97;;
20523;SDS011;10420;48.542;12.270;2023-04-03T02:19:13;7.77;;;3.90;;
20523;SDS011;10420;48.542;12.270;2023-04-03T02:24:14;8.20;;;3.80;;
20523;SDS011;10420;48.542;12.270;2023-04-03T02:29:15;6.73;;;3.60;;
20523;SDS011;10420;48.542;12.270;2023-04-03T02:34:16;6.67;;;3.90;;
20523;SDS011;10420;48.542;12.270;2023-04-03T02:39:16;6.53;;;3.80;;
20523;SDS011;10420;48.542;12.270;2023-04-03T02:44:17;6.30;;;3.97;;
20523;SDS011;10420;48.542;12.270;2023-04-03T02:49:18;6.80;;;4.17;;
20523;SDS011;10420;48.542;12.270;2023-04-03T02:54:19;8.97;;;3.77;;
20523;SDS011;10420;48.542;12.270;2023-04-03T02:59:20;6.83;;;4.30;;
20523;SDS011;10420;48.542;12.270;2023-04-03T03:04:21;6.87;;;4.30;;
20523;SDS011;10420;48.542;12.270;2023-04-03T03:09:22;6.87;;;4.73;;
20523;SDS011;10420;48.542;12.270;2023-04-03T03:14:23;14.13;;;4.50;;
20523;SDS011;10420;48.542;12.270;2023-04-03T03:19:23;9.80;;;5.10;;
20523;SDS011;10420;48.542;12.270;2023-04-03T03:24:24;8.03;;;4.80;;
20523;SDS011;10420;48.542;12.270;2023-04-03T03:29:25;13.90;;;5.33;;
20523;SDS011;10420;48.542;12.270;2023-04-03T03:34:26;13.17;;;5.43;;
20523;SDS011;10420;48.542;12.270;2023-04-03T03:39:26;10.70;;;5.60;;
20523;SDS011;10420;48.542;12.270;2023-04-03T03:44:27;10.60;;;5.20;;
20523;SDS011;10420;48.542;12.270;2023-04-03T03:49:29;12.57;;;6.23;;
20523;SDS011;10420;48.542;12.270;2023-04-03T03:54:29;9.70;;;5.03;;
20523;SDS011;10420;48.542;12.270;2023-04-03T03:59:30;12.43;;;5.93;;
20523;SDS011;10420;48.542;12.270;2023-04-03T04:04:31;8.03;;;4.73;;
20523;SDS011;10420;48.542;12.270;2023-04-03T04:09:31;11.43;;;5.53;;
20523;SDS011;10420;48.542;12.270;2023-04-03T04:14:32;10.20;;;5.20;;
20523;SDS011;10420;48.542;12.270;2023-04-03T04:19:33;12.10;;;5.90;;
20523;SDS011;10420;48.542;12.270;2023-04-03T04:24:33;12.40;;;5.60;;
20523;SDS011;10420;48.542;12.270;2023-04-03T04:29:34;11.43;;;5.83;;
20523;SDS011;10420;48.542;12.270;2023-04-03T04:34:36;10.33;;;5.70;;
20523;SDS011;10420;48.542;12.270;2023-04-03T04:39:37;28.57;;;12.73;;
20523;SDS011;10420;48.542;12.270;2023-04-03T04:44:38;11.00;;;6.70;;
20523;SDS011;10420;48.542;12.270;2023-04-03T04:49:39;12.00;;;6.83;;
20523;SDS011;10420;48.542;12.270;2023-04-03T04:54:40;9.50;;;6.17;;
20523;SDS011;10420;48.542;12.270;2023-04-03T04:59:40;13.43;;;6.40;;
20523;SDS011;10420;48.542;12.270;2023-04-03T05:04:41;10.33;;;5.77;;
20523;SDS011;10420;48.542;12.270;2023-04-03T05:09:41;8.73;;;5.57;;
20523;SDS011;10420;48.542;12.270;2023-04-03T05:14:42;8.90;;;6.07;;
20523;SDS011;10420;48.542;12.270;2023-04-03T05:19:43;9.87;;;6.00;;
20523;SDS011;10420;48.542;12.270;2023-04-03T05:24:43;13.47;;;6.23;;
20523;SDS011;10420;48.542;12.270;2023-04-03T05:29:44;12.40;;;6.93;;
20523;SDS011;10420;48.542;12.270;2023-04-03T05:34:45;13.27;;;6.13;;
20523;SDS011;10420;48.542;12.270;2023-04-03T05:39:45;14.83;;;6.27;;
20523;SDS011;10420;48.542;12.270;2023-04-03T05:44:46;12.27;;;6.53;;
20523;SDS011;10420;48.542;12.270;2023-04-03T05:49:47;13.43;;;7.30;;
20523;SDS011;10420;48.542;12.270;2023-04-03T05:54:47;15.10;;;8.33;;
20523;SDS011;10420;48.542;12.270;2023-04-03T05:59:49;12.87;;;7.90;;
20523;SDS011;10420;48.542;12.270;2023-04-03T06:04:50;16.80;;;8.93;;
20523;SDS011;10420;48.542;12.270;2023-04-03T06:09:51;17.43;;;7.60;;
20523;SDS011;10420;48.542;12.270;2023-04-03T06:14:52;13.47;;;7.00;;
20523;SDS011;10420;48.542;12.270;2023-04-03T06:19:53;16.47;;;9.03;;
20523;SDS011;10420;48.542;12.270;2023-04-03T06:24:54;13.23;;;7.97;;
20523;SDS011;10420;48.542;12.270;2023-04-03T06:29:54;16.33;;;8.53;;
20523;SDS011;10420;48.542;12.270;2023-04-03T06:34:55;14.67;;;8.20;;
20523;SDS011;10420;48.542;12.270;2023-04-03T06:39:57;13.40;;;7.13;;
20523;SDS011;10420;48.542;12.270;2023-04-03T06:44:58;15.57;;;8.03;;
20523;SDS011;10420;48.542;12.270;2023-04-03T06:49:58;11.87;;;6.87;;
20523;SDS011;10420;48.542;12.270;2023-04-03T06:54:59;12.03;;;7.27;;
20523;SDS011;10420;48.542;12.270;2023-04-03T07:00:00;12.00;;;7.20;;
20523;SDS011;10420;48.542;12.270;2023-04-03T07:05:01;16.53;;;5.90;;
20523;SDS011;10420;48.542;12.270;2023-04-03T07:10:03;15.00;;;7.40;;
20523;SDS011;10420;48.542;12.270;2023-04-03T07:15:04;10.73;;;6.90;;
20523;SDS011;10420;48.542;12.270;2023-04-03T07:20:06;11.40;;;6.60;;
20523;SDS011;10420;48.542;12.270;2023-04-03T07:25:07;14.57;;;6.63;;
20523;SDS011;10420;48.542;12.270;2023-04-03T07:30:08;9.90;;;6.03;;
20523;SDS011;10420;48.542;12.270;2023-04-03T07:35:09;10.13;;;6.20;;
20523;SDS011;10420;48.542;12.270;2023-04-03T07:40:10;13.10;;;6.10;;
20523;SDS011;10420;48.542;12.270;2023-04-03T07:45:11;11.63;;;6.57;;
20523;SDS011;10420;48.542;12.270;2023-04-03T07:50:11;13.53;;;6.20;;
20523;SDS011;10420;48.542;12.270;2023-04-03T07:55:12;14.60;;;5.60;;
20523;SDS011;10420;48.542;12.270;2023-04-03T08:00:13;9.67;;;5.73;;
20523;SDS011;10420;48.542;12.270;2023-04-03T08:05:14;11.17;;;4.87;;
20523;SDS011;10420;48.542;12.270;2023-04-03T08:10:15;7.43;;;4.13;;
20523;SDS011;10420;48.542;12.270;2023-04-03T08:15:15;10.70;;;4.13;;
20523;SDS011;10420;48.542;12.270;2023-04-03T08:20:16;8.97;;;4.47;;
20523;SDS011;10420;48.542;12.270;2023-04-03T08:25:17;7.47;;;3.50;;
20523;SDS011;10420;48.542;12.270;2023-04-03T08:30:18;6.03;;;3.07;;
20523;SDS011;10420;48.542;12.270;2023-04-03T08:35:18;7.80;;;3.33;;
20523;SDS011;10420;48.542;12.270;2023-04-03T08:40:20;7.60;;;2.93;;
20523;SDS011;10420;48.542;12.270;2023-04-03T08:50:53;6.90;;;2.40;;
20523;SDS011;10420;48.542;12.270;2023-04-03T08:55:56;6.73;;;2.60;;
20523;SDS011;10420;48.542;12.270;2023-04-03T09:06:27;6.83;;;2.10;;
20523;SDS011;10420;48.542;12.270;2023-04-03T09:11:36;14.57;;;2.27;;
20523;SDS011;10420;48.542;12.270;2023-04-03T09:16:47;7.53;;;3.53;;
20523;SDS011;10420;48.542;12.270;2023-04-03T09:21:56;3.87;;;2.00;;
20523;SDS011;10420;48.542;12.270;2023-04-03T09:26:58;7.27;;;3.37;;
20523;SDS011;10420;48.542;12.270;2023-04-03T09:32:12;4.47;;;2.87;;
20523;SDS011;10420;48.542;12.270;2023-04-03T09:42:48;12.90;;;2.63;;
20523;SDS011;10420;48.542;12.270;2023-04-03T09:47:49;4.43;;;2.20;;
20523;SDS011;10420;48.542;12.270;2023-04-03T09:53:24;5.97;;;2.30;;
20523;SDS011;10420;48.542;12.270;2023-04-03T09:58:39;8.20;;;1.97;;
20523;SDS011;10420;48.542;12.270;2023-04-03T10:03:42;2.70;;;1.77;;
20523;SDS011;10420;48.542;12.270;2023-04-03T10:08:46;9.67;;;2.97;;
20523;SDS011;10420;48.542;12.270;2023-04-03T10:14:04;2.53;;;1.80;;
20523;SDS011;10420;48.542;12.270;2023-04-03T10:46:28;3.33;;;1.90;;
20523;SDS011;10420;48.542;12.270;2023-04-03T10:51:54;3.73;;;1.70;;
20523;SDS011;10420;48.542;12.270;2023-04-03T10:57:17;3.77;;;1.90;;
20523;SDS011;10420;48.542;12.270;2023-04-03T11:02:23;4.43;;;2.10;;
20523;SDS011;10420;48.542;12.270;2023-04-03T11:07:32;3.43;;;1.90;;
20523;SDS011;10420;48.542;12.270;2023-04-03T11:12:41;3.07;;;2.30;;
20523;SDS011;10420;48.542;12.270;2023-04-03T11:17:53;5.67;;;2.67;;
20523;SDS011;10420;48.542;12.270;2023-04-03T11:23:03;2.90;;;1.50;;
20523;SDS011;10420;48.542;12.270;2023-04-03T11:28:19;2.50;;;1.80;;
20523;SDS011;10420;48.542;12.270;2023-04-03T11:33:31;4.83;;;1.63;;
20523;SDS011;10420;48.542;12.270;2023-04-03T11:38:52;4.43;;;2.10;;
20523;SDS011;10420;48.542;12.270;2023-04-03T11:44:01;1.97;;;1.53;;
20523;SDS011;10420;48.542;12.270;2023-04-03T11:49:12;2.80;;;1.70;;
20523;SDS011;10420;48.542;12.270;2023-04-03T11:54:47;3.73;;;1.60;;
20523;SDS011;10420;48.542;12.270;2023-04-03T11:59:49;2.93;;;1.97;;
20523;SDS011;10420;48.542;12.270;2023-04-03T12:05:25;7.53;;;1.50;;
20523;SDS011;10420;48.542;12.270;2023-04-03T12:10:29;6.33;;;1.57;;
20523;SDS011;10420;48.542;12.270;2023-04-03T12:15:49;2.47;;;1.50;;
20523;SDS011;10420;48.542;12.270;2023-04-03T12:26:04;1.70;;;1.30;;
20523;SDS011;10420;48.542;12.270;2023-04-03T12:31:19;3.10;;;1.90;;
20523;SDS011;10420;48.542;12.270;2023-04-03T12:36:27;2.97;;;1.73;;
20523;SDS011;10420;48.542;12.270;2023-04-03T12:47:22;3.87;;;2.00;;
20523;SDS011;10420;48.542;12.270;2023-04-03T12:52:33;5.40;;;2.50;;
20523;SDS011;10420;48.542;12.270;2023-04-03T12:57:39;8.30;;;3.50;;
20523;SDS011;10420;48.542;12.270;2023-04-03T13:02:43;2.37;;;1.60;;
20523;SDS011;10420;48.542;12.270;2023-04-03T13:07:48;2.70;;;1.50;;
20523;SDS011;10420;48.542;12.270;2023-04-03T13:13:15;2.67;;;1.80;;
20523;SDS011;10420;48.542;12.270;2023-04-03T13:23:36;4.03;;;2.10;;
20523;SDS011;10420;48.542;12.270;2023-04-03T13:28:40;11.53;;;4.27;;
20523;SDS011;10420;48.542;12.270;2023-04-03T13:39:29;6.17;;;3.23;;
20523;SDS011;10420;48.542;12.270;2023-04-03T13:44:33;5.13;;;2.43;;
20523;SDS011;10420;48.542;12.270;2023-04-03T13:49:36;5.30;;;2.50;;
20523;SDS011;10420;48.542;12.270;2023-04-03T13:54:39;2.83;;;1.93;;
20523;SDS011;10420;48.542;12.270;2023-04-03T13:59:40;2.87;;;1.70;;
20523;SDS011;10420;48.542;12.270;2023-04-03T14:09:45;7.80;;;2.37;;
20523;SDS011;10420;48.542;12.270;2023-04-03T14:14:46;5.97;;;1.80;;
20523;SDS011;10420;48.542;12.270;2023-04-03T14:19:47;4.13;;;2.10;;
20523;SDS011;10420;48.542;12.270;2023-04-03T14:24:49;4.23;;;2.27;;
20523;SDS011;10420;48.542;12.270;2023-04-03T14:29:52;4.27;;;2.40;;
20523;SDS011;10420;48.542;12.270;2023-04-03T14:34:53;6.20;;;2.47;;
20523;SDS011;10420;48.542;12.270;2023-04-03T14:39:55;5.97;;;2.20;;
20523;SDS011;10420;48.542;12.270;2023-04-03T14:44:58;5.73;;;2.27;;
20523;SDS011;10420;48.542;12.270;2023-04-03T14:50:00;8.27;;;2.00;;
20523;SDS011;10420;48.542;12.270;2023-04-03T14:55:03;3.07;;;1.80;;
20523;SDS011;10420;48.542;12.270;2023-04-03T15:00:11;7.17;;;2.40;;
20523;SDS011;10420;48.542;12.270;2023-04-03T15:05:14;3.90;;;2.30;;
20523;SDS011;10420;48.542;12.270;2023-04-03T15:15:23;3.07;;;1.90;;
20523;SDS011;10420;48.542;12.270;2023-04-03T15:20:25;5.03;;;2.33;;
20523;SDS011;10420;48.542;12.270;2023-04-03T15:25:28;3.97;;;2.30;;
20523;SDS011;10420;48.542;12.270;2023-04-03T15:30:29;6.50;;;3.00;;
20523;SDS011;10420;48.542;12.270;2023-04-03T15:35:30;4.87;;;2.47;;
20523;SDS011;10420;48.542;12.270;2023-04-03T15:40:30;5.37;;;2.93;;
20523;SDS011;10420;48.542;12.270;2023-04-03T15:45:31;4.37;;;2.67;;
20523;SDS011;10420;48.542;12.270;2023-04-03T15:50:33;3.10;;;2.30;;
20523;SDS011;10420;48.542;12.270;2023-04-03T15:55:35;8.27;;;4.60;;
20523;SDS011;10420;48.542;12.270;2023-04-03T16:00:38;6.23;;;3.43;;
20523;SDS011;10420;48.542;12.270;2023-04-03T16:05:39;5.43;;;2.87;;
20523;SDS011;10420;48.542;12.270;2023-04-03T16:10:40;6.30;;;3.13;;
20523;SDS011;10420;48.542;12.270;2023-04-03T16:15:41;8.43;;;3.47;;
20523;SDS011;10420;48.542;12.270;2023-04-03T16:20:42;5.73;;;3.10;;
20523;SDS011;10420;48.542;12.270;2023-04-03T16:25:43;6.57;;;2.53;;
20523;SDS011;10420;48.542;12.270;2023-04-03T16:30:48;6.30;;;2.93;;
20523;SDS011;10420;48.542;12.270;2023-04-03T16:35:49;6.53;;;2.97;;
20523;SDS011;10420;48.542;12.270;2023-04-03T16:40:50;4.67;;;2.00;;
20523;SDS011;10420;48.542;12.270;2023-04-03T16:45:52;6.33;;;2.40;;
20523;SDS011;10420;48.542;12.270;2023-04-03T16:50:53;4.37;;;2.30;;
20523;SDS011;10420;48.542;12.270;2023-04-03T16:55:54;10.80;;;3.70;;
20523;SDS011;10420;48.542;12.270;2023-04-03T17:00:57;8.23;;;2.80;;
20523;SDS011;10420;48.542;12.270;2023-04-03T17:05:58;7.73;;;3.37;;
20523;SDS011;10420;48.542;12.270;2023-04-03T17:10:58;7.33;;;2.83;;
20523;SDS011;10420;48.542;12.270;2023-04-03T17:15:59;4.93;;;2.60;;
20523;SDS011;10420;48.542;12.270;2023-04-03T17:21:02;5.93;;;2.53;;
20523;SDS011;10420;48.542;12.270;2023-04-03T17:26:04;5.90;;;2.40;;
20523;SDS011;10420;48.542;12.270;2023-04-03T17:31:05;18.73;;;6.60;;
20523;SDS011;10420;48.542;12.270;2023-04-03T17:36:06;5.80;;;2.43;;
20523;SDS011;10420;48.542;12.270;2023-04-03T17:41:07;5.90;;;2.70;;
20523;SDS011;10420;48.542;12.270;2023-04-03T17:46:09;7.30;;;3.17;;
20523;SDS011;10420;48.542;12.270;2023-04-03T17:51:10;7.53;;;3.10;;
20523;SDS011;10420;48.542;12.270;2023-04-03T17:56:14;6.40;;;2.60;;
20523;SDS011;10420;48.542;12.270;2023-04-03T18:01:20;9.63;;;4.20;;
20523;SDS011;10420;48.542;12.270;2023-04-03T18:06:24;6.70;;;3.13;;
20523;SDS011;10420;48.542;12.270;2023-04-03T18:11:27;4.63;;;2.40;;
20523;SDS011;10420;48.542;12.270;2023-04-03T18:16:29;12.30;;;2.40;;
20523;SDS011;10420;48.542;12.270;2023-04-03T18:21:30;5.00;;;2.80;;
20523;SDS011;10420;48.542;12.270;2023-04-03T18:26:31;7.23;;;2.73;;
20523;SDS011;10420;48.542;12.270;2023-04-03T18:31:32;5.10;;;2.67;;
20523;SDS011;10420;48.542;12.270;2023-04-03T18:36:35;4.30;;;2.80;;
20523;SDS011;10420;48.542;12.270;2023-04-03T18:41:36;6.47;;;2.67;;
20523;SDS011;10420;48.542;12.270;2023-04-03T18:46:37;10.53;;;3.00;;
20523;SDS011;10420;48.542;12.270;2023-04-03T18:51:38;4.27;;;2.60;;
20523;SDS011;10420;48.542;12.270;2023-04-03T18:56:38;4.73;;;2.50;;
20523;SDS011;10420;48.542;12.270;2023-04-03T19:01:39;7.10;;;3.67;;
20523;SDS011;10420;48.542;12.270;2023-04-03T19:06:40;9.17;;;3.53;;
20523;SDS011;10420;48.542;12.270;2023-04-03T19:11:41;6.77;;;3.37;;
20523;SDS011;10420;48.542;12.270;2023-04-03T19:16:42;7.90;;;3.30;;
20523;SDS011;10420;48.542;12.270;2023-04-03T19:21:43;8.67;;;3.97;;
20523;SDS011;10420;48.542;12.270;2023-04-03T19:26:44;63.50;;;33.50;;
20523;SDS011;10420;48.542;12.270;2023-04-03T19:31:45;95.27;;;51.23;;
20523;SDS011;10420;48.542;12.270;2023-04-03T19:36:45;33.43;;;16.17;;
20523;SDS011;10420;48.542;12.270;2023-04-03T19:41:48;45.27;;;20.87;;
20523;SDS011;10420;48.542;12.270;2023-04-03T19:46:48;49.00;;;26.33;;
20523;SDS011;10420;48.542;12.270;2023-04-03T19:51:49;24.97;;;12.00;;
20523;SDS011;10420;48.542;12.270;2023-04-03T19:56:50;24.90;;;10.37;;
20523;SDS011;10420;48.542;12.270;2023-04-03T20:01:51;8.80;;;4.67;;
20523;SDS011;10420;48.542;12.270;2023-04-03T20:06:52;9.63;;;4.87;;
20523;SDS011;10420;48.542;12.270;2023-04-03T20:11:52;28.10;;;12.33;;
20523;SDS011;10420;48.542;12.270;2023-04-03T20:16:53;18.37;;;8.77;;
20523;SDS011;10420;48.542;12.270;2023-04-03T20:21:54;30.07;;;10.13;;
20523;SDS011;10420;48.542;12.270;2023-04-03T20:26:55;24.07;;;8.77;;
20523;SDS011;10420;48.542;12.270;2023-04-03T20:31:56;13.07;;;5.80;;
20523;SDS011;10420;48.542;12.270;2023-04-03T20:36:57;8.30;;;5.07;;
20523;SDS011;10420;48.542;12.270;2023-04-03T20:41:58;7.70;;;4.30;;
20523;SDS011;10420;48.542;12.270;2023-04-03T20:46:59;7.37;;;3.30;;
20523;SDS011;10420;48.542;12.270;2023-04-03T20:51:59;5.63;;;2.80;;
20523;SDS011;10420;48.542;12.270;2023-04-03T20:57:00;4.50;;;2.50;;
20523;SDS011;10420;48.542;12.270;2023-04-03T21:02:01;4.67;;;2.83;;
20523;SDS011;10420;48.542;12.270;2023-04-03T21:23:28;4.93;;;3.63;;
20523;SDS011;10420;48.542;12.270;2023-04-03T21:28:29;6.10;;;2.60;;
20523;SDS011;10420;48.542;12.270;2023-04-03T21:33:30;10.47;;;2.80;;
20523;SDS011;10420;48.542;12.270;2023-04-03T21:38:31;6.63;;;2.90;;
20523;SDS011;10420;48.542;12.270;2023-04-03T21:43:34;4.97;;;3.10;;
20523;SDS011;10420;48.542;12.270;2023-04-03T21:48:34;5.53;;;3.17;;
20523;SDS011;10420;48.542;12.270;2023-04-03T21:53:35;6.83;;;3.60;;
20523;SDS011;10420;48.542;12.270;2023-04-03T21:58:37;8.77;;;3.60;;
20523;SDS011;10420;48.542;12.270;2023-04-03T22:03:38;6.20;;;3.23;;
20523;SDS011;10420;48.542;12.270;2023-04-03T22:08:40;5.17;;;2.90;;
20523;SDS011;10420;48.542;12.270;2023-04-03T22:13:42;6.30;;;2.73;;
20523;SDS011;10420;48.542;12.270;2023-04-03T22:18:43;9.77;;;3.30;;
20523;SDS011;10420;48.542;12.270;2023-04-03T22:23:43;6.60;;;3.10;;
20523;SDS011;10420;48.542;12.270;2023-04-03T22:28:45;7.40;;;3.10;;
20523;SDS011;10420;48.542;12.270;2023-04-03T22:33:46;6.80;;;2.83;;
20523;SDS011;10420;48.542;12.270;2023-04-03T22:38:47;4.33;;;2.67;;
20523;SDS011;10420;48.542;12.270;2023-04-03T22:43:47;7.13;;;3.20;;
20523;SDS011;10420;48.542;12.270;2023-04-03T22:48:48;5.57;;;2.67;;
20523;SDS011;10420;48.542;12.270;2023-04-03T22:53:49;6.77;;;3.13;;
20523;SDS011;10420;48.542;12.270;2023-04-03T22:58:49;7.77;;;3.20;;
20523;SDS011;10420;48.542;12.270;2023-04-03T23:03:50;10.33;;;2.80;;
20523;SDS011;10420;48.542;12.270;2023-04-03T23:08:51;7.53;;;3.20;;
20523;SDS011;10420;48.542;12.270;2023-04-03T23:13:51;4.80;;;3.10;;
20523;SDS011;10420;48.542;12.270;2023-04-03T23:18:52;5.83;;;2.97;;
20523;SDS011;10420;48.542;12.270;2023-04-03T23:23:53;6.90;;;3.50;;
20523;SDS011;10420;48.542;12.270;2023-04-03T23:28:53;6.57;;;3.23;;
20523;SDS011;10420;48.542;12.270;2023-04-03T23:33:54;8.13;;;3.07;;
20523;SDS011;10420;48.542;12.270;2023-04-03T23:38:55;7.60;;;3.13;;
20523;SDS011;10420;48.542;12.270;2023-04-03T23:43:55;4.57;;;2.53;;
20523;SDS011;10420;48.542;12.270;2023-04-03T23:48:56;8.53;;;3.10;;
20523;SDS011;10420;48.542;12.270;2023-04-03T23:53:57;6.00;;;2.83;;
20523;SDS011;10420;48.542;12.270;2023-04-03T23:58:57;6.10;;;3.37;;
